Flight Track Log - Related Links

Times and Time Zones

All times are in EDT time to prevent confusion due to time zone crossing. See the FIV630 flight status page for this flight to view local times or setup timezone preferences in your user account.

Time Position Orientation Groundspeed Altitude Reporting Facility
EDT Latitude Longitude Course Direction KTS MPH feet Rate Location/Type
Sun 12:02:06 AM 36.0769 -115.1731 205° Southwest 175 201 3,300  Level Los Angeles Center
Sun 12:03:19 AM 36.0125 -115.2097 190° South 248 285 7,400 3,803 Climbing Los Angeles Center
Sun 12:04:28 AM 35.9292 -115.2286 192° South 289 333 12,300 4,186 Climbing Los Angeles Center
Sun 12:05:28 AM 35.8439 -115.2503 192° South 308 354 16,400 3,850 Climbing Los Angeles Center
Sun 12:06:28 AM 35.7522 -115.2742 198° South 320 368 20,000 2,800 Climbing Los Angeles Center
Sun 12:07:28 AM 35.6606 -115.3108 228° Southwest 339 390 22,000 1,000 Climbing Los Angeles Center
Sun 12:08:28 AM 35.5903 -115.4061 228° Southwest 349 402 22,000  Level Los Angeles Center
Sun 12:09:28 AM 35.5197 -115.5036 227° Southwest 370 426 22,000  Level Los Angeles Center
Sun 12:10:28 AM 35.4556 -115.5883 228° Southwest 383 441 22,000  Level Los Angeles Center
Sun 12:11:28 AM 35.3850 -115.6856 228° Southwest 388 447 22,000  Level Los Angeles Center
Sun 12:12:28 AM 35.3122 -115.7853 227° Southwest 394 453 22,000  Level Los Angeles Center
Sun 12:13:28 AM 35.2394 -115.8822 227° Southwest 394 453 22,000  Level Los Angeles Center
Sun 12:14:28 AM 35.1686 -115.9764 226° Southwest 394 453 22,000  Level Los Angeles Center
Sun 12:15:28 AM 35.0914 -116.0731 227° Southwest 394 453 22,000  Level Los Angeles Center
Sun 12:16:28 AM 35.0186 -116.1694 230° Southwest 394 453 22,000  Level Los Angeles Center
Sun 12:17:28 AM 34.9494 -116.2683 246° West 394 453 22,000  Level Los Angeles Center
Sun 12:18:28 AM 34.9075 -116.3822 260° West 388 447 22,000  Level Los Angeles Center
Sun 12:19:28 AM 34.8886 -116.5086 259° West 374 430 22,000  Level Los Angeles Center
Sun 12:20:28 AM 34.8692 -116.6328 258° West 374 430 22,000  Level Los Angeles Center
Sun 12:21:28 AM 34.8478 -116.7539 259° West 374 430 22,000  Level Los Angeles Center
Sun 12:22:28 AM 34.8283 -116.8778 259° West 374 430 22,000  Level Los Angeles Center
Sun 12:23:28 AM 34.8086 -117.0042 259° West 374 430 22,000  Level Los Angeles Center
Sun 12:24:28 AM 34.7889 -117.1278 258° West 374 430 22,000  Level Los Angeles Center
Sun 12:25:28 AM 34.7647 -117.2617 259° West 374 430 22,000 -50 Level Los Angeles Center
Sun 12:26:28 AM 34.7447 -117.3828 258° West 374 430 21,900 -1,000 Descending Los Angeles Center
Sun 12:27:28 AM 34.7247 -117.5011 259° West 368 423 20,000 -1,950 Descending Los Angeles Center
Sun 12:28:28 AM 34.7044 -117.6222 257° West 368 423 18,000 -1,650 Descending Los Angeles Center
Sun 12:29:28 AM 34.6822 -117.7356 249° West 368 423 16,700 -1,500 Descending Los Angeles Center
Sun 12:30:28 AM 34.6494 -117.8408 248° West 352 405 15,000 -1,750 Descending Los Angeles Center
Sun 12:31:28 AM 34.6144 -117.9461 249° West 346 398 13,200 -1,800 Descending Los Angeles Center
Sun 12:32:28 AM 34.5817 -118.0489 249° West 341 392 11,400 -1,650 Descending Los Angeles Center
Sun 12:33:28 AM 34.5531 -118.1414 247° West 323 372 9,900 -1,550 Descending Los Angeles Center
Sun 12:34:28 AM 34.5267 -118.2164 243° Southwest 299 344 8,300 -950 Descending Los Angeles Center
Sun 12:35:28 AM 34.4942 -118.2939 220° Southwest 274 315 8,000 -150 Descending Los Angeles Center
Sun 12:36:28 AM 34.4408 -118.3478 168° South 260 299 8,000  Level Los Angeles Center
Sun 12:37:28 AM 34.3642 -118.3281 168° South 234 269 8,000 -450 Level Los Angeles Center
Sun 12:38:28 AM 34.2914 -118.3086 169° South 249 287 7,100 -500 Descending Los Angeles Center
Sun 12:39:28 AM 34.2228 -118.2919 174° South 256 295 7,000 -550 Descending Los Angeles Center
Sun 12:40:28 AM 34.1478 -118.2822 234° Southwest 256 295 6,000 -1,512 Descending Los Angeles Center
Sun 12:41:31 AM 34.1167 -118.3333 220° Southwest 183 211 3,900 -1,610 Descending Southern California TRACON
Sun 12:42:31 AM 34.0833 -118.3667 220° Southwest 145 167 2,700 -1,053 Descending Southern California TRACON
Sun 12:43:25 AM 34.0500 -118.4000 239° Southwest 134 154 1,900 -737 Descending Southern California TRACON
Sun 12:44:25 AM 34.0333 -118.4333 203° Southwest 115 132 1,300 -600 Descending Southern California TRACON
Sun 12:51:32 AM 34.0000 -118.4500 356° North  Level FlightAware Approximate
Sun 12:52:32 AM 34.0933 -118.4577 176° South  Level Estimated
Sun 12:53:32 AM 34.0000 -118.4500 356° North  Level FlightAware Approximate
Sun 12:54:32 AM 34.0933 -118.4577 356° North  Level Estimated

Login

Don't have an account? Register now (free) for customized features, flight alerts, and more!